Marion, Montana
Current Conditions -  °F | °C
As of 5:55 AM on Thursday 18 Dec 2014 (Local Time) from KGPI Reporting Station
Overcast Overcast  
Wind Chill: -2°   Ceiling: 1200
Heat Index: -2°   Visibility: 7mi
Dew Point: -2°   Wind: 0mph
Humidity: 96%   Direction: NA
Pressure: 29.96"   Gusts: NA
Location:  48.11°N, 114.66°W
Report Text: KGPI 181255Z AUTO 00000KT 7SM BKN012 OVC038 M02/M02 A2996 RMK AO2 SLP176 T10171022 $
Loading
Personal Weather Stations






























Interactive Weather Map New forecast layout! Learn more

10-Day Weather Forecast

Advertisements
Track Severe Weather on mobile